createdAt,value
2018-03-01T00:00:37.405Z,60.80
2018-03-01T00:03:04.990Z,60.90
2018-03-01T00:05:32.528Z,60.90
2018-03-01T00:08:00.112Z,60.80
2018-03-01T00:10:27.641Z,60.70
2018-03-01T00:12:55.218Z,60.80
2018-03-01T00:15:22.752Z,60.80
2018-03-01T00:17:50.343Z,60.80
2018-03-01T00:20:17.931Z,60.80
2018-03-01T00:22:46.365Z,60.90
2018-03-01T00:25:13.907Z,60.80
2018-03-01T00:27:41.488Z,60.80
2018-03-01T00:30:09.035Z,60.80
2018-03-01T00:32:36.689Z,60.90
2018-03-01T00:35:04.235Z,60.90
2018-03-01T00:37:31.820Z,60.80
2018-03-01T00:39:59.361Z,60.80
2018-03-01T00:42:26.942Z,60.90
2018-03-01T00:44:54.484Z,61.10
2018-03-01T00:47:22.067Z,61.00
2018-03-01T00:49:49.714Z,60.90
2018-03-01T00:52:17.291Z,60.90
2018-03-01T00:54:44.835Z,60.90
2018-03-01T00:57:12.418Z,60.80
2018-03-01T00:59:39.958Z,60.90
2018-03-01T01:02:07.540Z,61.00
2018-03-01T01:04:35.075Z,60.90
2018-03-01T01:07:02.668Z,60.90
2018-03-01T01:09:30.217Z,61.10
2018-03-01T01:11:57.811Z,61.10
2018-03-01T01:14:26.122Z,61.00
2018-03-01T01:16:53.658Z,61.00
2018-03-01T01:19:21.253Z,61.10
2018-03-01T01:21:48.798Z,61.10
2018-03-01T01:24:16.419Z,61.20
2018-03-01T01:26:44.710Z,61.10
2018-03-01T01:29:12.344Z,61.10
2018-03-01T01:31:40.663Z,61.30
2018-03-01T01:34:08.243Z,61.10
2018-03-01T01:36:35.782Z,61.20
2018-03-01T01:39:03.397Z,61.20
2018-03-01T01:41:30.935Z,61.20
2018-03-01T01:43:58.532Z,61.20
2018-03-01T01:46:26.849Z,61.30
2018-03-01T01:48:54.462Z,61.20
2018-03-01T01:51:22.821Z,61.20
2018-03-01T01:53:50.408Z,61.20
2018-03-01T01:56:18.710Z,61.30
2018-03-01T01:58:46.295Z,61.20
2018-03-01T02:01:14.608Z,61.40
2018-03-01T02:03:42.967Z,61.30
2018-03-01T02:06:10.514Z,61.30
2018-03-01T02:08:38.108Z,61.40
2018-03-01T02:11:06.431Z,61.40
2018-03-01T02:13:34.020Z,61.40
2018-03-01T02:16:02.332Z,61.30
2018-03-01T02:18:29.919Z,61.20
2018-03-01T02:20:57.465Z,61.50
2018-03-01T02:23:25.047Z,61.30
2018-03-01T02:25:52.590Z,61.40
2018-03-01T02:28:20.166Z,61.40
2018-03-01T02:30:47.728Z,61.40
2018-03-01T02:33:15.336Z,61.50
2018-03-01T02:35:43.649Z,62.20
2018-03-01T02:38:11.196Z,61.50
2018-03-01T02:40:38.768Z,61.50
2018-03-01T02:43:06.449Z,61.40
2018-03-01T02:45:34.001Z,61.40
2018-03-01T02:48:01.584Z,61.60
2018-03-01T02:50:29.230Z,61.60
2018-03-01T02:52:56.816Z,61.60
2018-03-01T02:55:24.369Z,61.60
2018-03-01T02:57:51.914Z,61.50
2018-03-01T03:00:19.496Z,62.50
2018-03-01T03:02:47.845Z,61.40
2018-03-01T03:05:15.391Z,61.40
2018-03-01T03:07:42.972Z,61.70
2018-03-01T03:10:10.510Z,61.60
2018-03-01T03:12:38.088Z,61.50
2018-03-01T03:15:05.641Z,61.60
2018-03-01T03:17:33.222Z,61.70
2018-03-01T03:20:00.761Z,61.60
2018-03-01T03:22:28.324Z,61.60
2018-03-01T03:24:55.953Z,61.60
2018-03-01T03:27:23.493Z,61.60
2018-03-01T03:29:51.833Z,61.80
2018-03-01T03:32:19.391Z,61.60
2018-03-01T03:34:46.936Z,61.70
2018-03-01T03:37:14.511Z,61.70
2018-03-01T03:39:42.092Z,61.50
2018-03-01T03:42:09.667Z,61.70
2018-03-01T03:44:37.984Z,61.90
2018-03-01T03:47:05.558Z,61.80
2018-03-01T03:49:33.108Z,61.70
2018-03-01T03:52:00.687Z,61.60
2018-03-01T03:54:28.270Z,61.90
2018-03-01T03:56:55.837Z,61.80
2018-03-01T03:59:23.379Z,61.80
2018-03-01T04:01:52.460Z,61.90
2018-03-01T04:04:20.043Z,61.80
2018-03-01T04:06:47.592Z,61.90
2018-03-01T04:09:15.176Z,61.90
2018-03-01T04:11:43.491Z,62.00
2018-03-01T04:14:11.033Z,62.10
2018-03-01T04:16:38.637Z,62.00
2018-03-01T04:19:06.196Z,62.00
2018-03-01T04:21:33.740Z,62.10
2018-03-01T04:24:01.328Z,62.00
2018-03-01T04:26:28.876Z,62.00
2018-03-01T04:28:56.484Z,62.00
2018-03-01T04:31:24.904Z,62.00
2018-03-01T04:33:52.489Z,62.00
2018-03-01T04:36:20.038Z,62.00
2018-03-01T04:38:47.592Z,62.00
2018-03-01T04:41:15.175Z,62.20
2018-03-01T04:43:42.723Z,62.30
2018-03-01T04:46:10.354Z,62.50
2018-03-01T04:48:37.936Z,62.30
2018-03-01T04:51:05.478Z,62.20
2018-03-01T04:53:33.050Z,62.20
2018-03-01T04:56:00.596Z,62.20
2018-03-01T04:58:28.179Z,62.30
2018-03-01T05:00:55.776Z,62.40
2018-03-01T05:03:24.091Z,62.30
2018-03-01T05:05:51.642Z,62.30
2018-03-01T05:08:19.225Z,63.10
2018-03-01T05:10:46.825Z,62.30
2018-03-01T05:13:15.149Z,62.60
2018-03-01T05:15:45.970Z,62.50
2018-03-01T05:18:13.546Z,62.40
2018-03-01T05:20:41.088Z,62.50
2018-03-01T05:23:08.763Z,62.40
2018-03-01T05:25:36.345Z,62.50
2018-03-01T05:28:03.925Z,62.50
2018-03-01T05:30:31.494Z,62.50
2018-03-01T05:32:59.808Z,62.60
2018-03-01T05:35:27.405Z,62.50
2018-03-01T05:37:54.944Z,62.60
2018-03-01T05:40:22.494Z,62.50
2018-03-01T05:42:50.064Z,62.50
2018-03-01T05:45:17.612Z,62.60
2018-03-01T05:47:45.195Z,62.50
2018-03-01T05:50:12.778Z,62.50
2018-03-01T05:52:40.365Z,62.60
2018-03-01T05:55:08.680Z,62.70
2018-03-01T05:57:36.220Z,62.60
2018-03-01T06:00:04.096Z,62.70
2018-03-01T06:02:32.077Z,62.70
2018-03-01T06:04:59.634Z,62.70
2018-03-01T06:07:27.213Z,62.60
2018-03-01T06:09:54.780Z,62.70
2018-03-01T06:12:22.339Z,62.70
2018-03-01T06:14:49.933Z,62.70
2018-03-01T06:17:18.292Z,62.70
2018-03-01T06:19:45.837Z,62.60
2018-03-01T06:22:13.396Z,62.60
2018-03-01T06:24:40.982Z,62.60
2018-03-01T06:27:09.347Z,62.90
2018-03-01T06:29:37.779Z,62.70
2018-03-01T06:32:05.333Z,62.70
2018-03-01T06:34:32.902Z,62.90
2018-03-01T06:37:00.533Z,62.80
2018-03-01T06:39:28.861Z,62.80
2018-03-01T06:41:56.600Z,62.80
2018-03-01T06:44:24.167Z,62.90
2018-03-01T06:46:51.743Z,62.70
2018-03-01T06:49:19.285Z,62.80
2018-03-01T06:51:46.870Z,62.80
2018-03-01T06:54:14.433Z,62.70
2018-03-01T06:56:43.528Z,63.00
2018-03-01T06:59:11.084Z,62.90
2018-03-01T07:01:38.668Z,62.80
2018-03-01T07:04:07.025Z,62.90
2018-03-01T07:06:34.571Z,62.90
2018-03-01T07:09:02.195Z,62.70
2018-03-01T07:11:29.752Z,62.80
2018-03-01T07:13:57.298Z,62.90
2018-03-01T07:16:25.694Z,62.90
2018-03-01T07:18:53.281Z,62.90
2018-03-01T07:21:21.058Z,62.80
2018-03-01T07:23:48.609Z,63.00
2018-03-01T07:26:16.161Z,63.00
2018-03-01T07:28:43.742Z,63.10
2018-03-01T07:31:11.479Z,62.80
2018-03-01T07:33:39.685Z,63.00
2018-03-01T07:36:07.277Z,62.70
2018-03-01T07:38:35.630Z,62.90
2018-03-01T07:41:03.382Z,62.80
2018-03-01T07:43:30.930Z,63.00
2018-03-01T07:45:58.552Z,62.90
2018-03-01T07:48:26.141Z,62.90
2018-03-01T07:50:53.698Z,63.00
2018-03-01T07:53:21.460Z,63.10
2018-03-01T07:55:49.015Z,63.10
2018-03-01T07:58:16.561Z,63.10
2018-03-01T08:00:44.142Z,63.10
2018-03-01T08:03:11.889Z,63.10
2018-03-01T08:05:39.440Z,62.90
2018-03-01T08:08:07.017Z,63.10
2018-03-01T08:10:34.656Z,63.10
2018-03-01T08:13:02.224Z,63.10
2018-03-01T08:15:29.820Z,63.20
2018-03-01T08:17:57.400Z,63.50
2018-03-01T08:20:25.989Z,63.20
2018-03-01T08:22:53.542Z,63.20
2018-03-01T08:25:21.292Z,63.20
2018-03-01T08:27:49.658Z,63.30
2018-03-01T08:30:17.285Z,63.30
2018-03-01T08:32:45.068Z,63.30
2018-03-01T08:35:12.771Z,63.50
2018-03-01T08:37:40.372Z,63.40
2018-03-01T08:40:07.967Z,63.40
2018-03-01T08:42:35.511Z,63.30
2018-03-01T08:45:03.064Z,63.20
2018-03-01T08:47:30.644Z,63.40
2018-03-01T08:49:58.225Z,63.30
2018-03-01T08:52:25.774Z,63.30
2018-03-01T08:54:53.364Z,63.30
2018-03-01T08:57:21.663Z,63.40
2018-03-01T08:59:49.208Z,63.40
2018-03-01T09:02:17.714Z,63.60
2018-03-01T09:04:45.591Z,63.60
2018-03-01T09:07:13.904Z,63.50
2018-03-01T09:09:41.636Z,63.50
2018-03-01T09:12:09.396Z,64.40
2018-03-01T09:14:36.960Z,63.60
2018-03-01T09:17:04.559Z,63.60
2018-03-01T09:19:32.100Z,63.80
2018-03-01T09:21:59.681Z,63.80
2018-03-01T09:24:27.226Z,63.80
2018-03-01T09:26:54.800Z,64.00
2018-03-01T09:29:22.342Z,63.80
2018-03-01T09:31:49.989Z,64.30
2018-03-01T09:34:17.663Z,63.90
2018-03-01T09:36:45.212Z,63.90
2018-03-01T09:39:12.875Z,63.90
2018-03-01T09:41:40.419Z,63.90
2018-03-01T09:44:07.962Z,64.10
2018-03-01T09:46:35.652Z,63.90
2018-03-01T09:49:03.207Z,63.90
2018-03-01T09:51:30.840Z,64.00
2018-03-01T09:53:58.385Z,64.00
2018-03-01T09:56:26.732Z,63.90
2018-03-01T09:58:54.328Z,63.90
2018-03-01T10:01:21.882Z,64.10
2018-03-01T10:03:50.554Z,64.10
2018-03-01T10:06:18.121Z,64.10
2018-03-01T10:08:46.471Z,64.20
2018-03-01T10:11:14.015Z,64.00
2018-03-01T10:13:41.561Z,64.20
2018-03-01T10:16:09.231Z,64.10
2018-03-01T10:18:36.807Z,64.30
2018-03-01T10:21:04.371Z,64.30
2018-03-01T10:23:31.992Z,64.30
2018-03-01T10:25:59.549Z,64.30
2018-03-01T10:28:27.111Z,64.30
2018-03-01T10:30:54.796Z,64.30
2018-03-01T10:33:22.355Z,64.40
2018-03-01T10:35:49.941Z,64.20
2018-03-01T10:38:17.539Z,64.30
2018-03-01T10:40:45.092Z,64.20
2018-03-01T10:43:12.774Z,64.30
2018-03-01T10:45:40.408Z,65.00
2018-03-01T10:48:07.969Z,64.10
2018-03-01T10:50:36.339Z,64.20
2018-03-01T10:53:04.659Z,64.30
2018-03-01T10:55:32.230Z,64.30
2018-03-01T10:57:59.852Z,64.40
2018-03-01T11:00:33.026Z,64.50
2018-03-01T11:03:01.649Z,64.80
2018-03-01T11:05:29.209Z,64.70
2018-03-01T11:07:56.901Z,64.80
2018-03-01T11:10:24.505Z,64.70
2018-03-01T11:12:52.102Z,64.70
2018-03-01T11:15:19.656Z,64.60
2018-03-01T11:17:47.213Z,64.60
2018-03-01T11:20:14.941Z,64.40
2018-03-01T11:22:43.250Z,63.90
2018-03-01T11:25:10.818Z,63.90
2018-03-01T11:27:38.437Z,63.80
2018-03-01T11:30:06.788Z,63.80
2018-03-01T11:32:34.346Z,63.80
2018-03-01T11:35:02.006Z,63.60
2018-03-01T11:37:29.526Z,63.40
2018-03-01T11:39:57.108Z,63.30
2018-03-01T11:42:24.755Z,63.00
2018-03-01T11:44:52.332Z,62.70
2018-03-01T11:47:20.176Z,62.00
2018-03-01T11:49:47.766Z,61.50
2018-03-01T11:52:15.350Z,61.00
2018-03-01T11:54:43.702Z,59.70
2018-03-01T11:57:11.302Z,59.70
2018-03-01T11:59:39.749Z,58.70
2018-03-01T12:02:07.319Z,58.70
2018-03-01T12:04:34.857Z,58.30
2018-03-01T12:07:02.442Z,57.80
2018-03-01T12:09:30.099Z,57.70
2018-03-01T12:11:57.679Z,57.70
2018-03-01T12:14:26.031Z,57.60
2018-03-01T12:16:53.572Z,57.50
2018-03-01T12:19:21.184Z,57.20
2018-03-01T12:21:49.701Z,56.80
2018-03-01T12:24:17.249Z,56.80
2018-03-01T12:26:45.018Z,56.80
2018-03-01T12:29:12.856Z,57.10
2018-03-01T12:31:41.209Z,58.10
2018-03-01T12:34:08.801Z,57.50
2018-03-01T12:36:36.689Z,57.40
2018-03-01T12:39:04.280Z,57.30
2018-03-01T12:41:31.867Z,57.10
2018-03-01T12:44:00.182Z,57.10
2018-03-01T12:46:27.776Z,57.10
2018-03-01T12:48:55.325Z,57.20
2018-03-01T12:51:22.872Z,57.30
2018-03-01T12:53:50.460Z,57.20
2018-03-01T12:56:18.021Z,57.40
2018-03-01T12:58:45.616Z,57.20
2018-03-01T13:01:13.932Z,57.30
2018-03-01T13:03:41.526Z,57.30
2018-03-01T13:06:09.104Z,57.80
2018-03-01T13:08:37.542Z,57.90
2018-03-01T13:11:05.135Z,57.90
2018-03-01T13:13:33.685Z,58.70
2018-03-01T13:16:01.271Z,58.60
2018-03-01T13:18:28.814Z,58.90
2018-03-01T13:20:56.401Z,60.00
2018-03-01T13:23:24.786Z,59.60
2018-03-01T13:25:53.181Z,59.60
2018-03-01T13:28:20.765Z,59.50
2018-03-01T13:30:48.328Z,60.00
2018-03-01T13:33:29.910Z,59.60
2018-03-01T13:35:57.466Z,59.90
2018-03-01T13:38:25.053Z,60.20
2018-03-01T13:40:52.676Z,60.70
2018-03-01T13:43:20.222Z,60.70
2018-03-01T13:46:03.596Z,61.00
2018-03-01T13:48:31.256Z,60.80
2018-03-01T13:50:58.836Z,61.40
2018-03-01T13:53:26.385Z,61.40
2018-03-01T13:55:53.972Z,61.60
2018-03-01T13:58:22.294Z,61.40
2018-03-01T14:00:49.887Z,61.40
2018-03-01T14:03:17.623Z,61.10
2018-03-01T14:06:01.108Z,61.70
2018-03-01T14:08:29.505Z,61.80
2018-03-01T14:10:57.986Z,61.30
2018-03-01T14:13:33.253Z,61.20
2018-03-01T14:16:00.992Z,61.20
2018-03-01T14:18:29.322Z,61.50
2018-03-01T14:21:02.685Z,61.50
2018-03-01T14:23:32.255Z,61.90
2018-03-01T14:26:12.247Z,61.60
2018-03-01T14:28:42.695Z,62.20
2018-03-01T14:31:10.410Z,62.10
2018-03-01T14:33:38.205Z,62.30
2018-03-01T14:36:05.790Z,62.50
2018-03-01T14:38:33.375Z,62.70
2018-03-01T14:41:00.983Z,63.00
2018-03-01T14:43:28.579Z,62.50
2018-03-01T14:45:56.134Z,62.70
2018-03-01T14:48:23.684Z,63.20
2018-03-01T14:50:51.291Z,63.10
2018-03-01T14:53:19.643Z,63.10
2018-03-01T14:55:47.197Z,63.10
2018-03-01T14:58:14.797Z,63.00
2018-03-01T15:00:42.365Z,63.30
2018-03-01T15:03:10.027Z,63.10
2018-03-01T15:05:37.629Z,63.20
2018-03-01T15:08:05.192Z,63.20
2018-03-01T15:10:32.895Z,63.20
2018-03-01T15:13:01.393Z,63.40
2018-03-01T15:15:28.965Z,63.30
2018-03-01T15:17:56.560Z,63.60
2018-03-01T15:20:24.861Z,63.60
2018-03-01T15:22:53.164Z,63.40
2018-03-01T15:25:20.760Z,63.50
2018-03-01T15:27:48.354Z,63.60
2018-03-01T15:30:16.678Z,63.30
2018-03-01T15:32:44.267Z,63.30
2018-03-01T15:35:11.817Z,63.10
2018-03-01T15:37:39.370Z,63.30
2018-03-01T15:40:07.032Z,63.40
2018-03-01T15:42:34.665Z,63.30
2018-03-01T15:45:02.262Z,63.10
2018-03-01T15:47:29.850Z,63.40
2018-03-01T15:49:57.455Z,63.50
2018-03-01T15:52:25.074Z,63.30
2018-03-01T15:54:53.430Z,63.50
2018-03-01T15:57:21.010Z,63.40
2018-03-01T15:59:49.541Z,63.70
2018-03-01T16:02:17.135Z,63.30
2018-03-01T16:04:44.740Z,63.50
2018-03-01T16:07:12.287Z,63.60
2018-03-01T16:09:40.804Z,63.60
2018-03-01T16:12:08.344Z,63.50
2018-03-01T16:14:35.976Z,63.50
2018-03-01T16:17:04.390Z,64.00
2018-03-01T16:19:32.172Z,64.00
2018-03-01T16:21:59.809Z,63.90
2018-03-01T16:24:27.408Z,64.00
2018-03-01T16:26:54.989Z,64.00
2018-03-01T16:29:22.598Z,64.00
2018-03-01T16:31:50.154Z,64.10
2018-03-01T16:34:17.748Z,64.30
2018-03-01T16:36:45.443Z,64.10
2018-03-01T16:39:13.144Z,64.10
2018-03-01T16:41:40.736Z,64.20
2018-03-01T16:44:08.304Z,64.40
2018-03-01T16:46:35.970Z,64.30
2018-03-01T16:49:03.515Z,64.10
2018-03-01T16:51:31.108Z,64.40
2018-03-01T16:53:59.476Z,64.50
2018-03-01T16:56:27.984Z,64.50
2018-03-01T16:58:56.356Z,64.40
2018-03-01T17:01:24.682Z,64.70
2018-03-01T17:03:52.265Z,64.70
2018-03-01T17:06:20.580Z,64.60
2018-03-01T17:08:48.932Z,64.90
2018-03-01T17:11:17.300Z,64.70
2018-03-01T17:13:44.863Z,64.70
2018-03-01T17:16:12.407Z,64.80
2018-03-01T17:18:40.011Z,64.60
2018-03-01T17:21:07.575Z,64.80
2018-03-01T17:23:35.925Z,64.60
2018-03-01T17:26:03.464Z,64.70
2018-03-01T17:28:31.056Z,64.70
2018-03-01T17:30:59.414Z,65.10
2018-03-01T17:33:26.968Z,65.20
2018-03-01T17:35:54.557Z,65.00
2018-03-01T17:38:22.865Z,64.70
2018-03-01T17:40:50.420Z,64.60
2018-03-01T17:43:18.010Z,64.80
2018-03-01T17:45:45.561Z,65.00
2018-03-01T17:48:13.160Z,65.00
2018-03-01T17:50:40.705Z,64.90
2018-03-01T17:53:08.254Z,64.90
2018-03-01T17:55:35.844Z,64.70
2018-03-01T17:58:03.478Z,64.90
2018-03-01T18:00:31.029Z,65.00
2018-03-01T18:02:58.572Z,64.90
2018-03-01T18:05:26.181Z,65.00
2018-03-01T18:07:53.734Z,65.80
2018-03-01T18:10:21.277Z,65.10
2018-03-01T18:12:48.862Z,64.90
2018-03-01T18:15:17.181Z,65.10
2018-03-01T18:17:44.760Z,65.10
2018-03-01T18:20:12.304Z,65.20
2018-03-01T18:22:39.900Z,65.20
2018-03-01T18:25:07.444Z,65.20
2018-03-01T18:27:35.025Z,65.20
2018-03-01T18:30:02.612Z,65.20
2018-03-01T18:32:30.923Z,65.20
2018-03-01T18:34:58.493Z,65.20
2018-03-01T18:37:26.073Z,65.10
2018-03-01T18:39:53.655Z,65.90
2018-03-01T18:42:21.205Z,65.20
2018-03-01T18:44:49.581Z,65.30
2018-03-01T18:47:17.203Z,65.30
2018-03-01T18:49:44.745Z,65.10
2018-03-01T18:52:12.328Z,65.10
2018-03-01T18:54:39.878Z,65.20
2018-03-01T18:57:07.475Z,65.40
2018-03-01T18:59:35.027Z,65.40
2018-03-01T19:02:02.582Z,65.50
2018-03-01T19:04:30.169Z,65.30
2018-03-01T19:06:58.532Z,65.40
2018-03-01T19:09:26.075Z,65.30
2018-03-01T19:11:53.625Z,65.50
2018-03-01T19:14:21.213Z,65.70
2018-03-01T19:16:48.796Z,65.70
2018-03-01T19:19:17.143Z,65.80
2018-03-01T19:21:44.688Z,65.70
2018-03-01T19:24:12.268Z,66.60
2018-03-01T19:26:39.808Z,65.70
2018-03-01T19:29:07.385Z,65.80
2018-03-01T19:31:35.721Z,65.80
2018-03-01T19:34:03.312Z,65.80
2018-03-01T19:36:30.900Z,65.60
2018-03-01T19:38:59.218Z,65.70
2018-03-01T19:41:26.763Z,65.70
2018-03-01T19:43:54.333Z,65.60
2018-03-01T19:46:21.930Z,65.60
2018-03-01T19:48:49.477Z,65.40
2018-03-01T19:51:17.065Z,65.60
2018-03-01T19:53:44.657Z,65.30
2018-03-01T19:56:13.006Z,65.50
2018-03-01T19:58:40.568Z,65.50
2018-03-01T20:01:08.889Z,65.50
2018-03-01T20:03:36.471Z,65.40
2018-03-01T20:06:04.026Z,65.50
2018-03-01T20:08:31.614Z,65.50
2018-03-01T20:10:59.160Z,65.50
2018-03-01T20:13:26.763Z,65.70
2018-03-01T20:15:55.079Z,65.60
2018-03-01T20:18:22.667Z,65.50
2018-03-01T20:20:50.236Z,65.60
2018-03-01T20:23:17.794Z,65.60
2018-03-01T20:25:45.399Z,65.60
2018-03-01T20:28:12.953Z,65.60
2018-03-01T20:30:40.509Z,66.40
2018-03-01T20:33:08.867Z,66.60
2018-03-01T20:35:37.233Z,65.60
2018-03-01T20:38:04.786Z,65.60
2018-03-01T20:40:32.373Z,65.60
2018-03-01T20:43:00.686Z,65.60
2018-03-01T20:45:28.279Z,65.60
2018-03-01T20:47:55.866Z,65.50
2018-03-01T20:50:24.179Z,65.60
2018-03-01T20:52:51.782Z,65.60
2018-03-01T20:55:19.390Z,65.50
2018-03-01T20:57:46.937Z,65.70
2018-03-01T21:00:15.251Z,65.30
2018-03-01T21:02:42.837Z,65.30
2018-03-01T21:05:10.414Z,65.40
2018-03-01T21:07:38.733Z,65.50
2018-03-01T21:10:06.329Z,65.50
2018-03-01T21:12:33.875Z,66.40
2018-03-01T21:15:01.495Z,65.70
2018-03-01T21:17:29.055Z,65.70
2018-03-01T21:19:56.600Z,65.70
2018-03-01T21:22:24.977Z,65.90
2018-03-01T21:24:53.294Z,66.10
2018-03-01T21:27:20.838Z,66.00
2018-03-01T21:29:48.413Z,66.30
2018-03-01T21:32:15.962Z,66.30
2018-03-01T21:34:43.554Z,66.40
2018-03-01T21:37:11.139Z,66.30
2018-03-01T21:39:38.682Z,66.10
2018-03-01T21:42:06.265Z,66.20
2018-03-01T21:44:34.626Z,66.20
2018-03-01T21:47:08.189Z,66.10
2018-03-01T21:49:35.781Z,66.10
2018-03-01T21:52:03.337Z,66.00
2018-03-01T21:54:30.883Z,66.10
2018-03-01T21:56:58.463Z,65.90
2018-03-01T21:59:26.061Z,66.10
2018-03-01T22:01:54.370Z,66.10
2018-03-01T22:04:21.915Z,66.10
2018-03-01T22:06:49.497Z,66.10
2018-03-01T22:09:17.037Z,66.20
2018-03-01T22:11:44.611Z,66.20
2018-03-01T22:14:12.248Z,66.30
2018-03-01T22:16:39.792Z,66.40
2018-03-01T22:19:08.410Z,66.40
2018-03-01T22:21:35.953Z,66.40
2018-03-01T22:24:03.531Z,66.30
2018-03-01T22:26:31.112Z,66.40
2018-03-01T22:28:58.652Z,66.40
2018-03-01T22:31:26.244Z,66.40
2018-03-01T22:33:53.794Z,66.40
2018-03-01T22:36:21.336Z,66.50
2018-03-01T22:38:48.909Z,66.30
2018-03-01T22:41:17.280Z,66.40
2018-03-01T22:43:44.817Z,66.40
2018-03-01T22:46:12.423Z,66.50
2018-03-01T22:48:39.968Z,66.50
2018-03-01T22:51:07.514Z,66.60
2018-03-01T22:53:35.094Z,66.70
2018-03-01T22:56:02.645Z,66.70
2018-03-01T22:58:30.259Z,66.70
2018-03-01T23:00:57.835Z,66.80
2018-03-01T23:03:25.385Z,66.70
2018-03-01T23:05:52.968Z,66.80
2018-03-01T23:08:20.510Z,66.60
2018-03-01T23:10:48.100Z,66.70
2018-03-01T23:13:15.649Z,66.70
2018-03-01T23:15:43.200Z,66.90
2018-03-01T23:18:10.861Z,66.70
2018-03-01T23:20:38.415Z,66.80
2018-03-01T23:23:06.004Z,66.90
2018-03-01T23:25:33.607Z,66.70
2018-03-01T23:28:01.921Z,66.80
2018-03-01T23:30:29.518Z,66.80
2018-03-01T23:32:57.059Z,66.70
2018-03-01T23:35:24.643Z,66.70
2018-03-01T23:37:52.186Z,66.70
2018-03-01T23:40:19.795Z,67.30
2018-03-01T23:42:47.337Z,66.90
2018-03-01T23:45:15.686Z,66.80
2018-03-01T23:47:43.273Z,66.80
2018-03-01T23:50:11.633Z,66.90
2018-03-01T23:52:39.216Z,66.80
2018-03-01T23:55:07.632Z,66.90
2018-03-01T23:57:35.221Z,66.80
